Data for 05/16/2008

Time Sea-Level Adjusted Pressure Absolute Pressure Temperature Relative Humidity Dew Point   
(mb) (inHg) (mb) (inHg) (C) (F) (%) (C) (F)
00:05 1027 30.33 856 25.28 9.5 49.2 73 4.9 40.9
00:10 1027 30.33 856 25.28 9.5 49 73 4.9 40.7
00:15 1027 30.33 856 25.28 9.5 49.2 72 4.8 40.6
00:20 1027 30.33 856 25.28 9.6 49.3 72 4.9 40.8
00:25 1027 30.33 856 25.28 9.6 49.3 72 4.8 40.7
00:30 1027 30.33 856 25.28 9.5 49 72 4.8 40.6
00:35 1027 30.33 856 25.28 9.3 48.7 73 4.7 40.5
00:40 1027 30.33 856 25.28 9.2 48.5 74 4.7 40.5
00:45 1027 30.33 856 25.28 9.1 48.3 74 4.7 40.5
00:50 1027 30.33 856 25.28 9 48.2 74 4.7 40.4
00:55 1027 30.33 856 25.28 9 48.2 74 4.7 40.4
01:00 1027 30.33 856 25.28 9 48.2 74 4.7 40.4
01:05 1027 30.33 856 25.28 9 48.1 74 4.7 40.4
01:10 1027 30.33 856 25.28 9 48.3 74 4.7 40.5
01:15 1027 30.33 856 25.28 9.1 48.3 74 4.7 40.5
01:20 1027 30.33 856 25.28 8.9 47.9 75 4.7 40.4
01:25 1027 30.33 856 25.28 8.6 47.5 76 4.6 40.3
01:30 1027 30.33 856 25.28 8.6 47.5 76 4.6 40.2
01:35 1027 30.33 856 25.28 8.8 47.9 75 4.6 40.3
01:40 1027 30.33 856 25.28 9.2 48.5 73 4.6 40.3
01:45 1027 30.33 856 25.28 9.3 48.7 73 4.8 40.6
01:50 1027 30.33 856 25.28 8.9 48 75 4.7 40.4
01:55 1027 30.33 856 25.28 8.7 47.7 75 4.6 40.2
02:00 1027 30.33 856 25.28 8.7 47.6 75 4.5 40.1
02:05 1027 30.33 856 25.28 8.6 47.5 76 4.6 40.3
02:10 1027 30.33 856 25.28 8.3 47 77 4.5 40.1
02:15 1027 30.33 856 25.28 8.2 46.7 77 4.5 40
02:20 1027 30.33 856 25.28 8 46.5 80 4.8 40.6
02:25 1027 30.33 856 25.28 8 46.5 79 4.7 40.5
02:30 1027 30.33 856 25.28 8.1 46.5 80 4.8 40.6
02:35 1027 30.33 856 25.28 8.2 46.8 79 4.8 40.6
02:40 1027 30.33 856 25.28 8.3 47 78 4.8 40.7
02:45 1027 30.33 856 25.28 8.5 47.3 78 4.8 40.7
02:50 1027 30.33 856 25.28 8.5 47.3 78 4.8 40.7
02:55 1027 30.33 857 25.31 8.5 47.3 78 4.9 40.8
03:00 1027 30.33 857 25.31 8.5 47.3 78 4.9 40.8
03:05 1027 30.33 857 25.31 8.5 47.3 78 4.8 40.7
03:10 1027 30.33 857 25.31 8.6 47.5 77 4.9 40.8
03:15 1027 30.33 857 25.31 8.6 47.5 77 4.9 40.8
03:20 1027 30.33 857 25.31 8.7 47.6 77 4.8 40.7
03:25 1027 30.33 857 25.31 8.7 47.7 76 4.8 40.7
03:30 1028 30.36 857 25.31 8.7 47.6 77 4.8 40.7
03:35 1027 30.33 857 25.31 8.8 47.8 76 4.9 40.7
03:40 1027 30.33 857 25.31 8.7 47.7 76 4.8 40.6
03:45 1027 30.33 856 25.28 8.6 47.5 77 4.7 40.5
03:50 1027 30.33 856 25.28 8.8 47.9 76 4.8 40.6
03:55 1027 30.33 856 25.28 8.5 47.3 77 4.7 40.4
04:00 1027 30.33 857 25.31 8.3 47 78 4.7 40.4
04:05 1027 30.33 857 25.31 8 46.4 79 4.6 40.2
04:10 1027 30.33 857 25.31 7.9 46.2 79 4.5 40.1
04:15 1027 30.33 857 25.31 7.9 46.1 80 4.6 40.2
04:20 1028 30.36 857 25.31 7.8 46 80 4.6 40.2
04:25 1027 30.33 857 25.31 7.4 45.4 81 4.4 40
04:30 1027 30.33 857 25.31 7 44.6 83 4.3 39.8
04:35 1027 30.33 857 25.31 7.2 44.9 82 4.4 39.9
04:40 1027 30.33 857 25.31 7.4 45.3 82 4.5 40.2
04:45 1028 30.36 857 25.31 7 44.6 84 4.4 40
04:50 1028 30.36 857 25.31 6.9 44.5 84 4.4 39.9
04:55 1028 30.36 857 25.31 7 44.5 84 4.5 40.1
05:00 1028 30.36 857 25.31 7.1 44.8 84 4.6 40.2
05:05 1028 30.36 857 25.31 7 44.6 84 4.6 40.2
05:10 1028 30.36 857 25.31 7.2 45 84 4.6 40.3
05:15 1028 30.36 857 25.31 7.2 44.9 84 4.6 40.3
05:20 1028 30.36 857 25.31 6.9 44.4 85 4.5 40.1
05:25 1028 30.36 857 25.31 6.9 44.4 85 4.5 40.2
05:30 1028 30.36 857 25.31 7.4 45.3 83 4.7 40.5
05:35 1028 30.36 857 25.31 7.7 45.8 82 4.9 40.8
05:40 1028 30.36 857 25.31 7.8 46 82 4.9 40.8
05:45 1028 30.36 857 25.31 7.7 45.8 82 4.8 40.7
05:50 1028 30.36 857 25.31 7.6 45.7 82 4.8 40.7
05:55 1028 30.36 857 25.31 7.6 45.6 83 4.8 40.7
06:00 1028 30.36 857 25.31 7.3 45.2 83 4.7 40.5
06:05 1028 30.36 857 25.31 7.2 44.9 84 4.6 40.3
06:10 1028 30.36 857 25.31 7.1 44.8 84 4.6 40.2
06:15 1028 30.36 857 25.31 7 44.5 85 4.6 40.2
06:20 1028 30.36 858 25.34 7.1 44.8 84 4.7 40.4
06:25 1028 30.36 858 25.34 7.4 45.3 84 4.8 40.6
06:30 1028 30.36 857 25.31 7.9 46.1 82 5 41
06:35 1028 30.36 857 25.31 8.4 47 80 5.2 41.3
06:40 1028 30.36 858 25.34 8.6 47.5 80 5.3 41.5
06:45 1028 30.36 858 25.34 8.7 47.6 79 5.3 41.5
06:50 1028 30.36 858 25.34 8.9 48 78 5.3 41.6
06:55 1028 30.36 858 25.34 9.1 48.3 77 5.4 41.7
07:00 1028 30.36 858 25.34 9.1 48.5 77 5.3 41.6
07:05 1028 30.36 858 25.34 9.2 48.6 77 5.4 41.7
07:10 1028 30.36 858 25.34 9.4 49 76 5.5 41.8
07:15 1028 30.36 858 25.34 9.7 49.4 76 5.6 42.1
07:20 1029 30.39 858 25.34 9.9 49.8 76 5.8 42.4
07:25 1029 30.39 858 25.34 10.3 50.5 74 5.8 42.5
07:30 1029 30.39 858 25.34 10.6 51 73 5.9 42.7
07:35 1029 30.39 858 25.34 10.9 51.6 72 6 42.9
07:40 1029 30.39 858 25.34 11 51.8 71 6.1 42.9
07:45 1029 30.39 858 25.34 11.2 52.2 71 6.1 43
07:50 1029 30.39 858 25.34 11.3 52.4 70 6.1 42.9
07:55 1029 30.39 858 25.34 11.5 52.7 69 6 42.8
08:00 1029 30.39 858 25.34 11.7 53.1 68 6 42.8
08:05 1029 30.39 858 25.34 12.2 54 67 6.2 43.2
08:10 1029 30.39 858 25.34 12.6 54.7 65 6.3 43.4
08:15 1029 30.39 858 25.34 13.1 55.5 64 6.5 43.7
08:20 1029 30.39 858 25.34 13.4 56.1 62 6.4 43.5
08:25 1029 30.39 858 25.34 13.6 56.4 62 6.5 43.7
08:30 1029 30.39 858 25.34 14.2 57.6 59 6.4 43.5
08:35 1029 30.39 858 25.34 14.4 57.9 58 6.3 43.3
08:40 1029 30.39 858 25.34 14.1 57.4 61 6.6 44
08:45 1029 30.39 858 25.34 13.2 55.8 63 6.5 43.7
08:50 1029 30.39 858 25.34 13.8 56.9 61 6.4 43.6
08:55 1029 30.39 858 25.34 14.4 57.9 59 6.5 43.8
09:00 1029 30.39 858 25.34 14.9 58.9 57 6.6 43.8
09:05 1029 30.39 858 25.34 14.7 58.5 58 6.6 43.8
09:10 1029 30.39 858 25.34 15.2 59.3 55 6.3 43.3
09:15 1029 30.39 858 25.34 15.4 59.7 54 6.3 43.4
09:20 1029 30.39 858 25.34 15.6 60.1 53 6.1 42.9
09:25 1029 30.39 858 25.34 15.6 60.1 52 6 42.8
09:30 1029 30.39 858 25.34 16.2 61.1 51 6.1 43.1
09:35 1029 30.39 858 25.34 16.4 61.5 51 6.3 43.3
09:40 1029 30.39 858 25.34 16.6 62 50 6.2 43.2
09:45 1029 30.39 858 25.34 17 62.5 48 6.1 43
09:50 1029 30.39 858 25.34 16.5 61.6 52 6.6 43.9
09:55 1029 30.39 858 25.34 15.9 60.7 51 5.8 42.5
10:00 1029 30.39 858 25.34 16.4 61.5 51 6.2 43.2
10:05 1029 30.39 858 25.34 16.1 60.9 51 6 42.8
10:10 1029 30.39 858 25.34 16.1 61 52 6.3 43.3
10:15 1029 30.39 858 25.34 16.6 61.9 49 6 42.7
10:20 1029 30.39 858 25.34 17.1 62.8 48 6 42.8
10:25 1029 30.39 858 25.34 17.4 63.4 47 6 42.8
10:30 1029 30.39 858 25.34 17.8 64 45 6 42.8
10:35 1029 30.39 858 25.34 17.9 64.3 46 6.3 43.4
10:40 1029 30.39 858 25.34 18.1 64.6 44 5.8 42.5
10:45 1029 30.39 858 25.34 18 64.5 45 6.1 43
10:50 1029 30.39 858 25.34 17.3 63.1 47 6 42.8
10:55 1029 30.39 858 25.34 17 62.6 47 5.8 42.4
11:00 1029 30.39 858 25.34 18 64.4 46 6.5 43.7
11:05 1029 30.39 858 25.34 18.5 65.2 44 6.2 43.1
11:10 1029 30.39 858 25.34 18.6 65.4 44 6.1 43
11:15 1028 30.36 858 25.34 19 66.1 42 6 42.8
11:20 1028 30.36 858 25.34 17.9 64.2 46 6.2 43.1
11:25 1028 30.36 858 25.34 17.6 63.6 47 6.1 43
11:30 1028 30.36 858 25.34 18.9 66.1 43 6.3 43.3
11:35 1028 30.36 858 25.34 19.3 66.8 44 6.8 44.3
11:40 1028 30.36 858 25.34 19.4 66.9 42 6.4 43.6
11:45 1028 30.36 857 25.31 19.9 67.8 42 6.7 44.1
11:50 1028 30.36 857 25.31 20.1 68.2 41 6.5 43.6
11:55 1028 30.36 857 25.31 19.8 67.6 40 6 42.7
12:00 1028 30.36 857 25.31 19.6 67.2 42 6.5 43.7
12:05 1028 30.36 857 25.31 20.1 68.2 39 5.8 42.5
12:10 1028 30.36 857 25.31 19.9 67.9 40 6.2 43.1
12:15 1028 30.36 857 25.31 20.1 68.2 39 5.8 42.4
12:20 1028 30.36 857 25.31 19.8 67.7 41 6.4 43.5
12:25 1028 30.36 857 25.31 20.5 68.9 40 6.5 43.7
12:30 1028 30.36 857 25.31 20 67.9 43 7 44.6
12:35 1028 30.36 857 25.31 20.4 68.7 38 5.6 42.1
12:40 1028 30.36 857 25.31 20.9 69.6 37 5.7 42.2
12:45 1028 30.36 857 25.31 20.6 69 35 4.8 40.7
12:50 1028 30.36 857 25.31 20.5 69 34 4.2 39.6
12:55 1028 30.36 857 25.31 21.3 70.4 34 4.9 40.8
13:00 1028 30.36 857 25.31 21.4 70.5 32 4.3 39.7
13:05 1028 30.36 857 25.31 21.5 70.7 34 5.1 41.1
13:10 1028 30.36 857 25.31 21.8 71.3 34 5.4 41.7
13:15 1028 30.36 857 25.31 21.4 70.4 32 4.3 39.7
13:20 1028 30.36 857 25.31 19.8 67.6 34 3.8 38.8
13:25 1028 30.36 857 25.31 20.6 69.2 32 3.5 38.3
13:30 1027 30.33 857 25.31 21.1 70 32 3.9 39
13:35 1027 30.33 857 25.31 21.5 70.7 28 2.4 36.3
13:40 1027 30.33 857 25.31 21.9 71.5 28 3 37.3
13:45 1027 30.33 857 25.31 21.7 71 30 3.7 38.7
13:50 1027 30.33 857 25.31 21.4 70.4 30 3.4 38.1
13:55 1027 30.33 857 25.31 22.1 71.7 29 3.2 37.8
14:00 1027 30.33 856 25.28 22.6 72.7 30 4.3 39.7
14:05 1027 30.33 856 25.28 22.6 72.6 31 4.6 40.3
14:10 1027 30.33 856 25.28 21.2 70.1 32 4.1 39.4
14:15 1027 30.33 856 25.28 20.8 69.5 33 4.1 39.3
14:20 1027 30.33 856 25.28 21.2 70.1 31 3.5 38.3
14:25 1027 30.33 857 25.31 21.6 70.8 31 4.1 39.4
14:30 1027 30.33 856 25.28 21.4 70.6 31 3.6 38.6
14:35 1027 30.33 856 25.28 21.4 70.5 30 3.1 37.7
14:40 1027 30.33 856 25.28 21.6 70.8 29 2.8 37.1
14:45 1027 30.33 856 25.28 21.5 70.8 31 4 39.2
14:50 1027 30.33 856 25.28 22.1 71.8 31 4.2 39.6
14:55 1027 30.33 856 25.28 22.6 72.6 29 3.7 38.7
15:00 1027 30.33 856 25.28 23.1 73.6 28 3.9 39
15:05 1027 30.33 856 25.28 23.1 73.7 28 4 39.2
15:10 1027 30.33 856 25.28 23.9 74.9 27 3.9 39.1
15:15 1027 30.33 856 25.28 23.8 74.9 27 3.7 38.6
15:20 1027 30.33 856 25.28 23.8 74.8 27 3.9 39
15:25 1027 30.33 856 25.28 23.4 74.1 28 4.1 39.4
15:30 1027 30.33 856 25.28 23 73.3 27 2.9 37.3
15:35 1027 30.33 856 25.28 23.5 74.4 27 3.7 38.7
15:40 1027 30.33 856 25.28 24 75.2 26 3.3 37.9
15:45 1027 30.33 856 25.28 24 75.1 26 3.5 38.2
15:50 1027 30.33 856 25.28 23.7 74.7 26 3.4 38.1
15:55 1027 30.33 856 25.28 23.4 74.2 27 3.5 38.2
16:00 1026 30.3 856 25.28 23.2 73.8 27 3.2 37.8
16:05 1026 30.3 856 25.28 23.9 75 26 3.4 38.1
16:10 1026 30.3 856 25.28 24.4 75.8 26 3.8 38.9
16:15 1026 30.3 856 25.28 24.3 75.7 26 4 39.3
16:20 1026 30.3 856 25.28 24.2 75.5 25 3.1 37.5
16:25 1026 30.3 856 25.28 25 77 24 3.2 37.7
16:30 1026 30.3 856 25.28 25 77 24 3.5 38.2
16:35 1026 30.3 855 25.25 24.2 75.5 26 3.6 38.5
16:40 1026 30.3 855 25.25 24.3 75.7 25 3.3 37.9
16:45 1026 30.3 855 25.25 24.3 75.7 25 3.4 38.2
16:50 1026 30.3 855 25.25 23.4 74 26 3 37.5
16:55 1026 30.3 855 25.25 23.1 73.6 25 2.5 36.4
17:00 1026 30.3 855 25.25 23.3 74 26 2.8 37
17:05 1026 30.3 855 25.25 23.5 74.2 25 2.4 36.4
17:10 1026 30.3 855 25.25 24.1 75.3 23 1.9 35.5
17:15 1026 30.3 855 25.25 24.1 75.4 23 2 35.6
17:20 1026 30.3 855 25.25 24.4 75.9 22 1.6 34.8
17:25 1026 30.3 855 25.25 24.8 76.6 22 2.2 35.9
17:30 1026 30.3 855 25.25 25 76.9 22 2.1 35.8
17:35 1026 30.3 855 25.25 24.1 75.5 24 2.5 36.5
17:40 1026 30.3 855 25.25 24.3 75.7 22 1.7 35.1
17:45 1026 30.3 855 25.25 24.3 75.7 22 1.6 34.9
17:50 1026 30.3 855 25.25 24.4 76 22 1.6 34.9
17:55 1026 30.3 855 25.25 24.8 76.6 22 2.1 35.8
18:00 1026 30.3 855 25.25 24.9 76.9 23 2.5 36.5
18:05 1025 30.27 855 25.25 25.1 77.2 22 2.4 36.3
18:10 1025 30.27 855 25.25 24.8 76.6 22 1.8 35.2
18:15 1025 30.27 855 25.25 24.9 76.9 22 1.8 35.2
18:20 1025 30.27 855 25.25 24.6 76.4 23 2.5 36.5
18:25 1025 30.27 855 25.25 23.8 74.9 24 2.3 36.2
18:30 1025 30.27 855 25.25 23.5 74.2 24 1.9 35.4
18:35 1025 30.27 854 25.22 23.5 74.4 24 1.8 35.3
18:40 1025 30.27 854 25.22 23.1 73.6 27 3.1 37.6
18:45 1025 30.27 854 25.22 23.4 74 24 1.9 35.4
18:50 1025 30.27 854 25.22 23.6 74.4 24 1.9 35.5
18:55 1025 30.27 854 25.22 23.9 74.9 24 2 35.7
19:00 1025 30.27 854 25.22 23.8 74.8 24 2.1 35.8
19:05 1025 30.27 854 25.22 23.9 74.9 25 2.8 37
19:10 1025 30.27 854 25.22 23.4 74.1 25 2.5 36.5
19:15 1025 30.27 854 25.22 23 73.3 25 2 35.7
19:20 1025 30.27 854 25.22 22.4 72.4 26 2.3 36.2
19:25 1025 30.27 854 25.22 22.1 71.8 26 2.1 35.7
19:30 1025 30.27 854 25.22 22.2 71.9 27 2.3 36.2
19:35 1025 30.27 854 25.22 22.3 72.1 26 2.2 35.9
19:40 1025 30.27 854 25.22 22.3 72.1 26 2.3 36.1
19:45 1025 30.27 854 25.22 22.2 71.9 26 1.8 35.3
19:50 1025 30.27 854 25.22 22 71.6 26 1.6 34.8
19:55 1025 30.27 854 25.22 21.9 71.5 26 1.7 35.1
20:00 1025 30.27 854 25.22 21.8 71.2 29 2.9 37.3
20:05 1025 30.27 854 25.22 21.7 71 28 2.5 36.5
20:10 1025 30.27 854 25.22 21.6 70.9 28 2.6 36.7
20:15 1025 30.27 854 25.22 21.5 70.6 29 2.6 36.8
20:20 1024 30.24 854 25.22 21.2 70.2 30 2.9 37.2
20:25 1024 30.24 854 25.22 21.1 69.9 30 3.1 37.6
20:30 1024 30.24 854 25.22 20.9 69.6 30 3 37.5
20:35 1025 30.27 854 25.22 20.7 69.3 32 3.4 38.2
20:40 1025 30.27 854 25.22 20.4 68.8 34 4.3 39.7
20:45 1025 30.27 854 25.22 20 68 38 5.2 41.4
20:50 1025 30.27 854 25.22 19.6 67.2 40 5.8 42.5
20:55 1025 30.27 854 25.22 18.9 66 42 5.7 42.3
21:00 1025 30.27 854 25.22 18.4 65.1 44 6.1 43
21:05 1025 30.27 854 25.22 17.8 64 47 6.6 43.8
21:10 1025 30.27 854 25.22 17.3 63.1 45 5.3 41.6
21:15 1025 30.27 854 25.22 17.2 63 43 4.8 40.6
21:20 1025 30.27 854 25.22 16.7 62 44 4.4 40
21:25 1025 30.27 854 25.22 16 60.7 44 4 39.1
21:30 1025 30.27 854 25.22 15.8 60.4 44 3.8 38.8
21:35 1025 30.27 854 25.22 15.7 60.2 44 3.7 38.6
21:40 1025 30.27 854 25.22 15.5 59.8 44 3.5 38.3
21:45 1025 30.27 854 25.22 15.2 59.3 45 3.5 38.3
21:50 1025 30.27 854 25.22 14.9 58.9 45 3.3 38
21:55 1025 30.27 855 25.25 14.8 58.6 46 3.2 37.8
22:00 1025 30.27 855 25.25 15 59 44 3 37.5
22:05 1025 30.27 855 25.25 15.3 59.5 44 3.2 37.8
22:10 1025 30.27 855 25.25 15.1 59.1 44 2.9 37.2
22:15 1025 30.27 855 25.25 14.7 58.4 44 2.7 36.9
22:20 1026 30.3 855 25.25 14.3 57.8 45 2.7 36.9
22:25 1025 30.27 855 25.25 14.4 57.9 44 2.3 36.1
22:30 1025 30.27 855 25.25 14.6 58.3 43 2.2 35.9
22:35 1026 30.3 855 25.25 14.6 58.2 43 2.1 35.8
22:40 1026 30.3 855 25.25 15 59 43 2.5 36.4
22:45 1026 30.3 855 25.25 15 58.9 43 2.5 36.6
22:50 1026 30.3 855 25.25 14.7 58.5 45 2.9 37.2
22:55 1026 30.3 855 25.25 14.4 57.9 45 2.7 36.9
23:00 1026 30.3 855 25.25 14.1 57.3 47 3.1 37.6
23:05 1026 30.3 855 25.25 13.9 57.1 46 2.7 36.9
23:10 1026 30.3 855 25.25 14.3 57.7 44 2.4 36.3
23:15 1026 30.3 855 25.25 14.4 57.9 44 2.4 36.2
23:20 1026 30.3 855 25.25 14.1 57.4 45 2.3 36.2
23:25 1026 30.3 855 25.25 13.9 57.1 45 2.2 36
23:30 1026 30.3 855 25.25 13.9 57 45 2.2 36
23:35 1026 30.3 855 25.25 13.6 56.5 47 2.6 36.7
23:40 1026 30.3 855 25.25 13.3 56 45 1.8 35.2
23:45 1026 30.3 855 25.25 13.1 55.6 47 2.1 35.7
23:50 1026 30.3 855 25.25 13 55.4 46 1.6 34.9
23:55 1026 30.3 855 25.25 12.9 55.2 45 1.5 34.6
24:00 1026 30.3 855 25.25 12.9 55.2 47 2 35.7